sensor_id;sensor_type;location;lat;lon;timestamp;P1;durP1;ratioP1;P2;durP2;ratioP2
70010;SDS011;59543;37.950;-122.338;2022-08-19T00:01:38;9.35;;;2.60;;
70010;SDS011;59543;37.950;-122.338;2022-08-19T00:04:08;7.57;;;2.33;;
70010;SDS011;59543;37.950;-122.338;2022-08-19T00:06:36;9.98;;;2.40;;
70010;SDS011;59543;37.950;-122.338;2022-08-19T00:09:04;10.00;;;2.72;;
70010;SDS011;59543;37.950;-122.338;2022-08-19T00:11:32;8.82;;;2.50;;
70010;SDS011;59543;37.950;-122.338;2022-08-19T00:14:03;8.25;;;2.28;;
70010;SDS011;59543;37.950;-122.338;2022-08-19T00:16:31;8.25;;;2.70;;
70010;SDS011;59543;37.950;-122.338;2022-08-19T00:18:58;8.40;;;2.20;;
70010;SDS011;59543;37.950;-122.338;2022-08-19T00:21:24;9.48;;;2.70;;
70010;SDS011;59543;37.950;-122.338;2022-08-19T00:23:52;11.82;;;2.58;;
70010;SDS011;59543;37.950;-122.338;2022-08-19T00:26:20;7.60;;;2.50;;
70010;SDS011;59543;37.950;-122.338;2022-08-19T00:28:46;21.45;;;2.92;;
70010;SDS011;59543;37.950;-122.338;2022-08-19T00:31:12;10.48;;;2.53;;
70010;SDS011;59543;37.950;-122.338;2022-08-19T00:33:38;8.55;;;2.42;;
70010;SDS011;59543;37.950;-122.338;2022-08-19T00:36:06;8.93;;;2.33;;
70010;SDS011;59543;37.950;-122.338;2022-08-19T00:38:35;10.13;;;2.38;;
70010;SDS011;59543;37.950;-122.338;2022-08-19T00:41:03;10.02;;;3.17;;
70010;SDS011;59543;37.950;-122.338;2022-08-19T00:43:30;9.98;;;2.78;;
70010;SDS011;59543;37.950;-122.338;2022-08-19T00:45:56;11.88;;;3.30;;
70010;SDS011;59543;37.950;-122.338;2022-08-19T00:48:22;7.18;;;2.63;;
70010;SDS011;59543;37.950;-122.338;2022-08-19T00:50:49;7.15;;;2.47;;
70010;SDS011;59543;37.950;-122.338;2022-08-19T00:53:19;12.98;;;2.75;;
70010;SDS011;59543;37.950;-122.338;2022-08-19T00:55:48;14.07;;;3.45;;
70010;SDS011;59543;37.950;-122.338;2022-08-19T00:58:17;9.13;;;2.75;;
70010;SDS011;59543;37.950;-122.338;2022-08-19T01:00:46;8.23;;;2.83;;
70010;SDS011;59543;37.950;-122.338;2022-08-19T01:03:15;10.55;;;3.35;;
70010;SDS011;59543;37.950;-122.338;2022-08-19T01:05:44;11.00;;;3.55;;
70010;SDS011;59543;37.950;-122.338;2022-08-19T01:08:11;10.35;;;2.90;;
70010;SDS011;59543;37.950;-122.338;2022-08-19T01:10:45;12.85;;;3.65;;
70010;SDS011;59543;37.950;-122.338;2022-08-19T01:13:19;14.98;;;3.80;;
70010;SDS011;59543;37.950;-122.338;2022-08-19T01:16:11;9.40;;;3.53;;
70010;SDS011;59543;37.950;-122.338;2022-08-19T01:18:39;14.20;;;4.05;;
70010;SDS011;59543;37.950;-122.338;2022-08-19T01:23:45;10.23;;;4.03;;
70010;SDS011;59543;37.950;-122.338;2022-08-19T01:26:13;17.67;;;4.40;;
70010;SDS011;59543;37.950;-122.338;2022-08-19T01:28:45;20.55;;;4.38;;
70010;SDS011;59543;37.950;-122.338;2022-08-19T01:31:14;14.73;;;4.80;;
70010;SDS011;59543;37.950;-122.338;2022-08-19T01:33:43;18.75;;;5.05;;
70010;SDS011;59543;37.950;-122.338;2022-08-19T01:36:13;19.48;;;6.00;;
70010;SDS011;59543;37.950;-122.338;2022-08-19T01:38:42;16.23;;;4.93;;
70010;SDS011;59543;37.950;-122.338;2022-08-19T01:41:10;15.23;;;5.05;;
70010;SDS011;59543;37.950;-122.338;2022-08-19T01:43:37;17.40;;;5.28;;
70010;SDS011;59543;37.950;-122.338;2022-08-19T01:46:03;13.90;;;4.80;;
70010;SDS011;59543;37.950;-122.338;2022-08-19T01:48:34;15.48;;;4.28;;
70010;SDS011;59543;37.950;-122.338;2022-08-19T01:51:02;11.65;;;4.32;;
70010;SDS011;59543;37.950;-122.338;2022-08-19T01:53:29;49.92;;;5.78;;
70010;SDS011;59543;37.950;-122.338;2022-08-19T01:55:55;16.73;;;4.55;;
70010;SDS011;59543;37.950;-122.338;2022-08-19T01:58:23;15.45;;;4.53;;
70010;SDS011;59543;37.950;-122.338;2022-08-19T02:00:55;15.10;;;4.38;;
70010;SDS011;59543;37.950;-122.338;2022-08-19T02:03:22;15.30;;;4.07;;
70010;SDS011;59543;37.950;-122.338;2022-08-19T02:05:53;11.45;;;3.88;;
70010;SDS011;59543;37.950;-122.338;2022-08-19T02:08:25;12.75;;;3.65;;
70010;SDS011;59543;37.950;-122.338;2022-08-19T02:10:52;11.38;;;3.33;;
70010;SDS011;59543;37.950;-122.338;2022-08-19T02:13:19;11.93;;;3.60;;
70010;SDS011;59543;37.950;-122.338;2022-08-19T02:15:45;16.33;;;3.58;;
70010;SDS011;59543;37.950;-122.338;2022-08-19T02:18:12;14.95;;;3.67;;
70010;SDS011;59543;37.950;-122.338;2022-08-19T02:20:39;9.23;;;3.00;;
70010;SDS011;59543;37.950;-122.338;2022-08-19T02:23:07;13.93;;;3.10;;
70010;SDS011;59543;37.950;-122.338;2022-08-19T02:25:37;13.23;;;3.28;;
70010;SDS011;59543;37.950;-122.338;2022-08-19T02:28:04;13.52;;;3.17;;
70010;SDS011;59543;37.950;-122.338;2022-08-19T02:30:31;16.95;;;3.88;;
70010;SDS011;59543;37.950;-122.338;2022-08-19T02:32:57;26.38;;;3.55;;
70010;SDS011;59543;37.950;-122.338;2022-08-19T02:35:24;13.10;;;3.30;;
70010;SDS011;59543;37.950;-122.338;2022-08-19T02:37:51;8.18;;;2.97;;
70010;SDS011;59543;37.950;-122.338;2022-08-19T02:40:36;9.80;;;3.05;;
70010;SDS011;59543;37.950;-122.338;2022-08-19T02:43:03;13.07;;;3.13;;
70010;SDS011;59543;37.950;-122.338;2022-08-19T02:45:36;9.20;;;2.88;;
70010;SDS011;59543;37.950;-122.338;2022-08-19T02:48:07;9.77;;;3.10;;
70010;SDS011;59543;37.950;-122.338;2022-08-19T02:50:37;7.82;;;2.97;;
70010;SDS011;59543;37.950;-122.338;2022-08-19T02:53:05;11.35;;;3.50;;
70010;SDS011;59543;37.950;-122.338;2022-08-19T02:55:33;11.25;;;3.20;;
70010;SDS011;59543;37.950;-122.338;2022-08-19T02:58:00;10.80;;;3.00;;
70010;SDS011;59543;37.950;-122.338;2022-08-19T03:00:26;18.17;;;3.50;;
70010;SDS011;59543;37.950;-122.338;2022-08-19T03:02:53;9.68;;;3.22;;
70010;SDS011;59543;37.950;-122.338;2022-08-19T03:05:19;10.32;;;3.42;;
70010;SDS011;59543;37.950;-122.338;2022-08-19T03:07:46;8.30;;;2.97;;
70010;SDS011;59543;37.950;-122.338;2022-08-19T03:10:15;9.30;;;2.80;;
70010;SDS011;59543;37.950;-122.338;2022-08-19T03:12:41;16.25;;;3.35;;
70010;SDS011;59543;37.950;-122.338;2022-08-19T03:15:08;7.25;;;2.58;;
70010;SDS011;59543;37.950;-122.338;2022-08-19T03:17:37;11.23;;;2.42;;
70010;SDS011;59543;37.950;-122.338;2022-08-19T03:20:04;9.38;;;2.92;;
70010;SDS011;59543;37.950;-122.338;2022-08-19T03:22:31;6.22;;;2.38;;
70010;SDS011;59543;37.950;-122.338;2022-08-19T03:24:57;12.57;;;3.10;;
70010;SDS011;59543;37.950;-122.338;2022-08-19T03:27:24;9.38;;;2.70;;
70010;SDS011;59543;37.950;-122.338;2022-08-19T03:29:50;5.63;;;2.60;;
70010;SDS011;59543;37.950;-122.338;2022-08-19T03:32:17;8.20;;;2.55;;
70010;SDS011;59543;37.950;-122.338;2022-08-19T03:34:43;9.52;;;2.88;;
70010;SDS011;59543;37.950;-122.338;2022-08-19T03:37:10;8.02;;;2.95;;
70010;SDS011;59543;37.950;-122.338;2022-08-19T03:39:40;10.05;;;2.92;;
70010;SDS011;59543;37.950;-122.338;2022-08-19T03:42:07;9.75;;;3.28;;
70010;SDS011;59543;37.950;-122.338;2022-08-19T03:44:34;8.52;;;3.30;;
70010;SDS011;59543;37.950;-122.338;2022-08-19T03:47:03;6.97;;;2.78;;
70010;SDS011;59543;37.950;-122.338;2022-08-19T03:49:31;8.90;;;3.20;;
70010;SDS011;59543;37.950;-122.338;2022-08-19T03:52:00;7.07;;;3.25;;
70010;SDS011;59543;37.950;-122.338;2022-08-19T03:54:26;9.13;;;3.15;;
70010;SDS011;59543;37.950;-122.338;2022-08-19T03:56:54;8.57;;;3.22;;
70010;SDS011;59543;37.950;-122.338;2022-08-19T03:59:29;8.55;;;3.50;;
70010;SDS011;59543;37.950;-122.338;2022-08-19T04:01:59;9.65;;;3.22;;
70010;SDS011;59543;37.950;-122.338;2022-08-19T04:04:28;5.63;;;3.03;;
70010;SDS011;59543;37.950;-122.338;2022-08-19T04:06:55;8.10;;;3.17;;
70010;SDS011;59543;37.950;-122.338;2022-08-19T04:09:22;5.60;;;3.03;;
70010;SDS011;59543;37.950;-122.338;2022-08-19T04:11:50;8.93;;;3.47;;
70010;SDS011;59543;37.950;-122.338;2022-08-19T04:14:21;6.50;;;3.10;;
70010;SDS011;59543;37.950;-122.338;2022-08-19T04:16:50;8.95;;;3.50;;
70010;SDS011;59543;37.950;-122.338;2022-08-19T04:19:17;9.32;;;4.07;;
70010;SDS011;59543;37.950;-122.338;2022-08-19T04:21:45;14.98;;;4.50;;
70010;SDS011;59543;37.950;-122.338;2022-08-19T04:24:13;6.28;;;3.40;;
70010;SDS011;59543;37.950;-122.338;2022-08-19T04:26:40;7.40;;;3.70;;
70010;SDS011;59543;37.950;-122.338;2022-08-19T04:29:11;10.43;;;3.60;;
70010;SDS011;59543;37.950;-122.338;2022-08-19T04:31:39;5.90;;;3.15;;
70010;SDS011;59543;37.950;-122.338;2022-08-19T04:34:09;8.48;;;3.58;;
70010;SDS011;59543;37.950;-122.338;2022-08-19T04:36:37;7.70;;;3.88;;
70010;SDS011;59543;37.950;-122.338;2022-08-19T04:39:07;7.90;;;3.65;;
70010;SDS011;59543;37.950;-122.338;2022-08-19T04:41:36;6.65;;;3.30;;
70010;SDS011;59543;37.950;-122.338;2022-08-19T04:44:20;7.00;;;3.10;;
70010;SDS011;59543;37.950;-122.338;2022-08-19T04:46:48;8.73;;;4.00;;
70010;SDS011;59543;37.950;-122.338;2022-08-19T04:49:16;8.50;;;3.35;;
70010;SDS011;59543;37.950;-122.338;2022-08-19T04:51:44;7.88;;;3.72;;
70010;SDS011;59543;37.950;-122.338;2022-08-19T04:54:13;9.13;;;3.25;;
70010;SDS011;59543;37.950;-122.338;2022-08-19T04:56:40;7.65;;;3.03;;
70010;SDS011;59543;37.950;-122.338;2022-08-19T04:59:06;9.50;;;3.17;;
70010;SDS011;59543;37.950;-122.338;2022-08-19T05:01:34;11.07;;;3.20;;
70010;SDS011;59543;37.950;-122.338;2022-08-19T05:04:03;11.00;;;3.65;;
70010;SDS011;59543;37.950;-122.338;2022-08-19T05:06:31;6.78;;;2.95;;
70010;SDS011;59543;37.950;-122.338;2022-08-19T05:08:59;7.22;;;2.70;;
70010;SDS011;59543;37.950;-122.338;2022-08-19T05:11:28;6.47;;;2.97;;
70010;SDS011;59543;37.950;-122.338;2022-08-19T05:13:56;7.75;;;3.08;;
70010;SDS011;59543;37.950;-122.338;2022-08-19T05:16:23;5.93;;;2.70;;
70010;SDS011;59543;37.950;-122.338;2022-08-19T05:18:52;6.50;;;2.70;;
70010;SDS011;59543;37.950;-122.338;2022-08-19T05:21:40;5.68;;;2.60;;
70010;SDS011;59543;37.950;-122.338;2022-08-19T05:24:26;9.60;;;3.10;;
70010;SDS011;59543;37.950;-122.338;2022-08-19T05:26:53;8.75;;;2.70;;
70010;SDS011;59543;37.950;-122.338;2022-08-19T05:29:22;7.35;;;3.10;;
70010;SDS011;59543;37.950;-122.338;2022-08-19T05:31:52;6.93;;;3.20;;
70010;SDS011;59543;37.950;-122.338;2022-08-19T05:34:20;5.35;;;2.67;;
70010;SDS011;59543;37.950;-122.338;2022-08-19T05:36:50;9.45;;;4.28;;
70010;SDS011;59543;37.950;-122.338;2022-08-19T05:39:23;11.00;;;3.97;;
70010;SDS011;59543;37.950;-122.338;2022-08-19T05:41:53;7.55;;;4.00;;
70010;SDS011;59543;37.950;-122.338;2022-08-19T05:44:23;6.28;;;3.80;;
70010;SDS011;59543;37.950;-122.338;2022-08-19T05:46:50;10.80;;;4.65;;
70010;SDS011;59543;37.950;-122.338;2022-08-19T05:49:21;7.70;;;4.22;;
70010;SDS011;59543;37.950;-122.338;2022-08-19T05:51:48;9.55;;;4.03;;
70010;SDS011;59543;37.950;-122.338;2022-08-19T05:54:15;6.05;;;3.15;;
70010;SDS011;59543;37.950;-122.338;2022-08-19T05:56:42;9.02;;;2.92;;
70010;SDS011;59543;37.950;-122.338;2022-08-19T05:59:09;7.10;;;2.90;;
70010;SDS011;59543;37.950;-122.338;2022-08-19T06:01:37;9.70;;;2.90;;
70010;SDS011;59543;37.950;-122.338;2022-08-19T06:04:05;12.38;;;2.95;;
70010;SDS011;59543;37.950;-122.338;2022-08-19T06:06:32;6.70;;;2.92;;
70010;SDS011;59543;37.950;-122.338;2022-08-19T06:09:00;5.53;;;2.70;;
70010;SDS011;59543;37.950;-122.338;2022-08-19T06:14:00;7.60;;;2.75;;
70010;SDS011;59543;37.950;-122.338;2022-08-19T06:16:28;3.55;;;2.55;;
70010;SDS011;59543;37.950;-122.338;2022-08-19T06:18:58;7.93;;;2.72;;
70010;SDS011;59543;37.950;-122.338;2022-08-19T06:21:27;6.72;;;3.08;;
70010;SDS011;59543;37.950;-122.338;2022-08-19T06:23:56;6.60;;;2.58;;
70010;SDS011;59543;37.950;-122.338;2022-08-19T06:26:23;3.95;;;2.20;;
70010;SDS011;59543;37.950;-122.338;2022-08-19T06:28:51;5.78;;;2.35;;
70010;SDS011;59543;37.950;-122.338;2022-08-19T06:31:19;5.05;;;2.25;;
70010;SDS011;59543;37.950;-122.338;2022-08-19T06:33:48;5.55;;;2.50;;
70010;SDS011;59543;37.950;-122.338;2022-08-19T06:36:24;5.85;;;2.42;;
70010;SDS011;59543;37.950;-122.338;2022-08-19T06:38:53;5.35;;;2.13;;
70010;SDS011;59543;37.950;-122.338;2022-08-19T06:41:19;6.28;;;2.15;;
70010;SDS011;59543;37.950;-122.338;2022-08-19T06:43:46;7.78;;;2.30;;
70010;SDS011;59543;37.950;-122.338;2022-08-19T06:46:14;6.18;;;2.38;;
70010;SDS011;59543;37.950;-122.338;2022-08-19T06:48:41;6.68;;;2.58;;
70010;SDS011;59543;37.950;-122.338;2022-08-19T06:51:07;3.38;;;2.17;;
70010;SDS011;59543;37.950;-122.338;2022-08-19T06:53:34;5.28;;;2.10;;
70010;SDS011;59543;37.950;-122.338;2022-08-19T06:56:00;5.18;;;2.15;;
70010;SDS011;59543;37.950;-122.338;2022-08-19T06:58:31;6.90;;;2.03;;
70010;SDS011;59543;37.950;-122.338;2022-08-19T07:01:03;4.72;;;1.77;;
70010;SDS011;59543;37.950;-122.338;2022-08-19T07:03:30;5.57;;;1.90;;
70010;SDS011;59543;37.950;-122.338;2022-08-19T07:06:05;5.10;;;2.60;;
70010;SDS011;59543;37.950;-122.338;2022-08-19T07:08:34;4.40;;;2.25;;
70010;SDS011;59543;37.950;-122.338;2022-08-19T07:11:05;4.50;;;2.22;;
70010;SDS011;59543;37.950;-122.338;2022-08-19T07:13:36;7.40;;;2.53;;
70010;SDS011;59543;37.950;-122.338;2022-08-19T07:16:04;4.78;;;2.05;;
70010;SDS011;59543;37.950;-122.338;2022-08-19T07:18:32;4.68;;;1.70;;
70010;SDS011;59543;37.950;-122.338;2022-08-19T07:21:02;4.10;;;1.67;;
70010;SDS011;59543;37.950;-122.338;2022-08-19T07:23:33;3.25;;;1.60;;
70010;SDS011;59543;37.950;-122.338;2022-08-19T07:26:06;2.08;;;1.30;;
70010;SDS011;59543;37.950;-122.338;2022-08-19T07:28:35;3.60;;;1.70;;
70010;SDS011;59543;37.950;-122.338;2022-08-19T07:31:07;5.93;;;1.60;;
70010;SDS011;59543;37.950;-122.338;2022-08-19T07:33:33;4.25;;;1.40;;
70010;SDS011;59543;37.950;-122.338;2022-08-19T07:36:03;2.75;;;1.50;;
70010;SDS011;59543;37.950;-122.338;2022-08-19T07:38:31;6.40;;;2.70;;
70010;SDS011;59543;37.950;-122.338;2022-08-19T07:40:57;3.30;;;2.20;;
70010;SDS011;59543;37.950;-122.338;2022-08-19T07:43:24;4.72;;;2.55;;
70010;SDS011;59543;37.950;-122.338;2022-08-19T07:45:52;6.97;;;2.15;;
70010;SDS011;59543;37.950;-122.338;2022-08-19T07:48:22;3.55;;;2.25;;
70010;SDS011;59543;37.950;-122.338;2022-08-19T07:50:57;5.32;;;2.28;;
70010;SDS011;59543;37.950;-122.338;2022-08-19T07:53:31;4.43;;;2.47;;
70010;SDS011;59543;37.950;-122.338;2022-08-19T07:56:01;5.18;;;2.33;;
70010;SDS011;59543;37.950;-122.338;2022-08-19T07:58:34;3.75;;;2.00;;
70010;SDS011;59543;37.950;-122.338;2022-08-19T08:01:03;6.88;;;1.88;;
70010;SDS011;59543;37.950;-122.338;2022-08-19T08:03:31;4.22;;;1.90;;
70010;SDS011;59543;37.950;-122.338;2022-08-19T08:06:17;5.00;;;1.88;;
70010;SDS011;59543;37.950;-122.338;2022-08-19T08:09:03;3.47;;;1.70;;
70010;SDS011;59543;37.950;-122.338;2022-08-19T08:11:52;4.03;;;1.60;;
70010;SDS011;59543;37.950;-122.338;2022-08-19T08:14:33;4.30;;;1.67;;
70010;SDS011;59543;37.950;-122.338;2022-08-19T08:17:06;2.35;;;1.17;;
70010;SDS011;59543;37.950;-122.338;2022-08-19T08:19:36;4.45;;;1.52;;
70010;SDS011;59543;37.950;-122.338;2022-08-19T08:22:05;4.68;;;1.80;;
70010;SDS011;59543;37.950;-122.338;2022-08-19T08:24:31;9.80;;;1.60;;
70010;SDS011;59543;37.950;-122.338;2022-08-19T08:26:59;5.72;;;2.55;;
70010;SDS011;59543;37.950;-122.338;2022-08-19T08:29:26;4.03;;;1.63;;
70010;SDS011;59543;37.950;-122.338;2022-08-19T08:31:54;3.35;;;1.52;;
70010;SDS011;59543;37.950;-122.338;2022-08-19T08:34:21;4.57;;;1.80;;
70010;SDS011;59543;37.950;-122.338;2022-08-19T08:36:47;3.55;;;1.55;;
70010;SDS011;59543;37.950;-122.338;2022-08-19T08:39:16;3.13;;;1.48;;
70010;SDS011;59543;37.950;-122.338;2022-08-19T08:41:52;4.05;;;1.73;;
70010;SDS011;59543;37.950;-122.338;2022-08-19T08:44:28;2.17;;;1.17;;
70010;SDS011;59543;37.950;-122.338;2022-08-19T08:47:04;4.65;;;1.77;;
70010;SDS011;59543;37.950;-122.338;2022-08-19T08:49:41;3.33;;;1.70;;
70010;SDS011;59543;37.950;-122.338;2022-08-19T08:52:12;3.28;;;1.40;;
70010;SDS011;59543;37.950;-122.338;2022-08-19T08:54:47;4.45;;;1.60;;
70010;SDS011;59543;37.950;-122.338;2022-08-19T08:57:23;4.22;;;1.52;;
70010;SDS011;59543;37.950;-122.338;2022-08-19T09:00:08;4.05;;;1.35;;
70010;SDS011;59543;37.950;-122.338;2022-08-19T09:02:42;2.97;;;1.50;;
70010;SDS011;59543;37.950;-122.338;2022-08-19T09:05:09;2.95;;;1.60;;
70010;SDS011;59543;37.950;-122.338;2022-08-19T09:07:53;4.22;;;1.65;;
70010;SDS011;59543;37.950;-122.338;2022-08-19T09:10:43;3.25;;;1.25;;
70010;SDS011;59543;37.950;-122.338;2022-08-19T09:16:05;4.10;;;1.50;;
70010;SDS011;59543;37.950;-122.338;2022-08-19T09:21:27;3.25;;;1.20;;
70010;SDS011;59543;37.950;-122.338;2022-08-19T09:23:53;2.95;;;1.20;;
70010;SDS011;59543;37.950;-122.338;2022-08-19T09:26:21;2.55;;;1.30;;
70010;SDS011;59543;37.950;-122.338;2022-08-19T09:28:49;3.40;;;1.30;;
70010;SDS011;59543;37.950;-122.338;2022-08-19T09:31:21;4.38;;;1.42;;
70010;SDS011;59543;37.950;-122.338;2022-08-19T09:33:49;2.90;;;1.40;;
70010;SDS011;59543;37.950;-122.338;2022-08-19T09:36:18;4.97;;;1.67;;
70010;SDS011;59543;37.950;-122.338;2022-08-19T09:38:47;3.10;;;1.50;;
70010;SDS011;59543;37.950;-122.338;2022-08-19T09:41:15;3.45;;;1.50;;
70010;SDS011;59543;37.950;-122.338;2022-08-19T09:43:45;3.10;;;1.23;;
70010;SDS011;59543;37.950;-122.338;2022-08-19T09:46:13;4.65;;;1.40;;
70010;SDS011;59543;37.950;-122.338;2022-08-19T09:48:42;5.10;;;1.42;;
70010;SDS011;59543;37.950;-122.338;2022-08-19T09:51:13;2.53;;;1.33;;
70010;SDS011;59543;37.950;-122.338;2022-08-19T09:53:42;4.28;;;2.10;;
70010;SDS011;59543;37.950;-122.338;2022-08-19T09:56:10;5.47;;;2.15;;
70010;SDS011;59543;37.950;-122.338;2022-08-19T09:58:37;4.20;;;2.00;;
70010;SDS011;59543;37.950;-122.338;2022-08-19T10:01:05;4.18;;;2.17;;
70010;SDS011;59543;37.950;-122.338;2022-08-19T10:03:32;4.30;;;2.45;;
70010;SDS011;59543;37.950;-122.338;2022-08-19T10:06:00;3.22;;;2.20;;
70010;SDS011;59543;37.950;-122.338;2022-08-19T10:08:30;3.17;;;2.17;;
70010;SDS011;59543;37.950;-122.338;2022-08-19T10:10:58;3.65;;;2.10;;
70010;SDS011;59543;37.950;-122.338;2022-08-19T10:13:26;2.35;;;1.52;;
70010;SDS011;59543;37.950;-122.338;2022-08-19T10:15:54;6.05;;;1.60;;
70010;SDS011;59543;37.950;-122.338;2022-08-19T10:18:27;2.63;;;1.52;;
70010;SDS011;59543;37.950;-122.338;2022-08-19T10:21:01;3.05;;;1.25;;
70010;SDS011;59543;37.950;-122.338;2022-08-19T10:23:36;2.78;;;1.27;;
70010;SDS011;59543;37.950;-122.338;2022-08-19T10:26:05;2.85;;;1.23;;
70010;SDS011;59543;37.950;-122.338;2022-08-19T10:28:35;2.88;;;1.50;;
70010;SDS011;59543;37.950;-122.338;2022-08-19T10:31:10;3.38;;;1.67;;
70010;SDS011;59543;37.950;-122.338;2022-08-19T10:33:38;2.70;;;1.90;;
70010;SDS011;59543;37.950;-122.338;2022-08-19T10:36:23;5.97;;;2.15;;
70010;SDS011;59543;37.950;-122.338;2022-08-19T10:38:53;5.03;;;2.55;;
70010;SDS011;59543;37.950;-122.338;2022-08-19T10:41:24;2.58;;;1.85;;
70010;SDS011;59543;37.950;-122.338;2022-08-19T10:44:00;5.45;;;2.60;;
70010;SDS011;59543;37.950;-122.338;2022-08-19T10:46:29;5.05;;;2.08;;
70010;SDS011;59543;37.950;-122.338;2022-08-19T10:48:58;5.60;;;2.50;;
70010;SDS011;59543;37.950;-122.338;2022-08-19T10:51:26;4.47;;;2.17;;
70010;SDS011;59543;37.950;-122.338;2022-08-19T10:54:11;4.80;;;2.00;;
70010;SDS011;59543;37.950;-122.338;2022-08-19T10:56:38;7.32;;;2.00;;
70010;SDS011;59543;37.950;-122.338;2022-08-19T10:59:17;7.93;;;2.20;;
70010;SDS011;59543;37.950;-122.338;2022-08-19T11:01:47;3.72;;;2.00;;
70010;SDS011;59543;37.950;-122.338;2022-08-19T11:04:14;4.95;;;2.00;;
70010;SDS011;59543;37.950;-122.338;2022-08-19T11:06:46;4.60;;;2.10;;
70010;SDS011;59543;37.950;-122.338;2022-08-19T11:09:14;5.00;;;1.92;;
70010;SDS011;59543;37.950;-122.338;2022-08-19T11:11:42;7.43;;;2.40;;
70010;SDS011;59543;37.950;-122.338;2022-08-19T11:14:13;4.65;;;2.10;;
70010;SDS011;59543;37.950;-122.338;2022-08-19T11:16:40;5.28;;;2.45;;
70010;SDS011;59543;37.950;-122.338;2022-08-19T11:19:08;6.80;;;2.47;;
70010;SDS011;59543;37.950;-122.338;2022-08-19T11:21:38;7.22;;;2.60;;
70010;SDS011;59543;37.950;-122.338;2022-08-19T11:24:06;13.30;;;3.40;;
70010;SDS011;59543;37.950;-122.338;2022-08-19T11:26:35;10.82;;;3.55;;
70010;SDS011;59543;37.950;-122.338;2022-08-19T11:29:04;8.95;;;3.28;;
70010;SDS011;59543;37.950;-122.338;2022-08-19T11:31:32;16.15;;;4.20;;
70010;SDS011;59543;37.950;-122.338;2022-08-19T11:34:05;11.60;;;3.45;;
70010;SDS011;59543;37.950;-122.338;2022-08-19T11:36:34;16.15;;;4.43;;
70010;SDS011;59543;37.950;-122.338;2022-08-19T11:39:04;18.58;;;4.63;;
70010;SDS011;59543;37.950;-122.338;2022-08-19T11:41:31;15.00;;;3.45;;
70010;SDS011;59543;37.950;-122.338;2022-08-19T11:43:58;12.27;;;3.60;;
70010;SDS011;59543;37.950;-122.338;2022-08-19T11:46:25;12.27;;;4.03;;
70010;SDS011;59543;37.950;-122.338;2022-08-19T11:48:55;9.40;;;3.03;;
70010;SDS011;59543;37.950;-122.338;2022-08-19T11:51:22;10.35;;;3.42;;
70010;SDS011;59543;37.950;-122.338;2022-08-19T11:53:50;12.00;;;3.10;;
70010;SDS011;59543;37.950;-122.338;2022-08-19T11:56:18;7.60;;;2.75;;
70010;SDS011;59543;37.950;-122.338;2022-08-19T11:58:45;10.73;;;2.88;;
70010;SDS011;59543;37.950;-122.338;2022-08-19T12:01:12;7.55;;;2.78;;
70010;SDS011;59543;37.950;-122.338;2022-08-19T12:03:44;8.65;;;3.13;;
70010;SDS011;59543;37.950;-122.338;2022-08-19T12:06:13;8.65;;;2.90;;
70010;SDS011;59543;37.950;-122.338;2022-08-19T12:08:42;7.53;;;3.08;;
70010;SDS011;59543;37.950;-122.338;2022-08-19T12:11:13;8.70;;;3.00;;
70010;SDS011;59543;37.950;-122.338;2022-08-19T12:13:40;8.20;;;2.63;;
70010;SDS011;59543;37.950;-122.338;2022-08-19T12:16:10;7.15;;;2.90;;
70010;SDS011;59543;37.950;-122.338;2022-08-19T12:18:38;6.15;;;2.80;;
70010;SDS011;59543;37.950;-122.338;2022-08-19T12:21:17;10.85;;;3.47;;
70010;SDS011;59543;37.950;-122.338;2022-08-19T12:23:46;5.90;;;2.88;;
70010;SDS011;59543;37.950;-122.338;2022-08-19T12:26:14;10.80;;;3.53;;
70010;SDS011;59543;37.950;-122.338;2022-08-19T12:28:41;8.73;;;3.75;;
70010;SDS011;59543;37.950;-122.338;2022-08-19T12:31:07;5.88;;;2.90;;
70010;SDS011;59543;37.950;-122.338;2022-08-19T12:33:37;7.65;;;2.95;;
70010;SDS011;59543;37.950;-122.338;2022-08-19T12:36:05;7.63;;;3.03;;
70010;SDS011;59543;37.950;-122.338;2022-08-19T12:38:33;6.63;;;2.42;;
70010;SDS011;59543;37.950;-122.338;2022-08-19T12:40:59;8.40;;;2.60;;
70010;SDS011;59543;37.950;-122.338;2022-08-19T12:43:28;9.55;;;3.05;;
70010;SDS011;59543;37.950;-122.338;2022-08-19T12:45:55;6.65;;;2.47;;
70010;SDS011;59543;37.950;-122.338;2022-08-19T12:48:21;9.05;;;3.03;;
70010;SDS011;59543;37.950;-122.338;2022-08-19T12:50:47;9.02;;;2.80;;
70010;SDS011;59543;37.950;-122.338;2022-08-19T12:53:14;13.25;;;2.80;;
70010;SDS011;59543;37.950;-122.338;2022-08-19T12:55:40;7.05;;;2.70;;
70010;SDS011;59543;37.950;-122.338;2022-08-19T12:58:08;8.75;;;2.53;;
70010;SDS011;59543;37.950;-122.338;2022-08-19T13:00:35;10.45;;;3.20;;
70010;SDS011;59543;37.950;-122.338;2022-08-19T13:03:01;5.90;;;2.80;;
70010;SDS011;59543;37.950;-122.338;2022-08-19T13:05:29;6.85;;;2.70;;
70010;SDS011;59543;37.950;-122.338;2022-08-19T13:07:59;6.53;;;3.15;;
70010;SDS011;59543;37.950;-122.338;2022-08-19T13:10:27;8.43;;;3.47;;
70010;SDS011;59543;37.950;-122.338;2022-08-19T13:13:03;8.10;;;3.37;;
70010;SDS011;59543;37.950;-122.338;2022-08-19T13:15:39;7.40;;;3.13;;
70010;SDS011;59543;37.950;-122.338;2022-08-19T13:18:08;11.38;;;3.42;;
70010;SDS011;59543;37.950;-122.338;2022-08-19T13:20:36;9.30;;;2.78;;
70010;SDS011;59543;37.950;-122.338;2022-08-19T13:23:03;4.82;;;2.17;;
70010;SDS011;59543;37.950;-122.338;2022-08-19T13:25:30;4.95;;;1.98;;
70010;SDS011;59543;37.950;-122.338;2022-08-19T13:27:56;3.13;;;2.20;;
70010;SDS011;59543;37.950;-122.338;2022-08-19T13:30:22;6.20;;;2.33;;
70010;SDS011;59543;37.950;-122.338;2022-08-19T13:33:08;4.30;;;2.00;;
70010;SDS011;59543;37.950;-122.338;2022-08-19T13:35:46;5.32;;;2.10;;
70010;SDS011;59543;37.950;-122.338;2022-08-19T13:38:15;5.60;;;2.00;;
70010;SDS011;59543;37.950;-122.338;2022-08-19T13:40:46;7.15;;;2.67;;
70010;SDS011;59543;37.950;-122.338;2022-08-19T13:43:15;4.63;;;2.10;;
70010;SDS011;59543;37.950;-122.338;2022-08-19T13:45:42;7.80;;;2.47;;
70010;SDS011;59543;37.950;-122.338;2022-08-19T13:48:09;6.32;;;2.47;;
70010;SDS011;59543;37.950;-122.338;2022-08-19T13:50:40;6.80;;;2.97;;
70010;SDS011;59543;37.950;-122.338;2022-08-19T13:53:11;5.82;;;2.65;;
70010;SDS011;59543;37.950;-122.338;2022-08-19T13:55:38;5.82;;;3.20;;
70010;SDS011;59543;37.950;-122.338;2022-08-19T13:58:06;6.40;;;3.30;;
70010;SDS011;59543;37.950;-122.338;2022-08-19T14:00:34;8.15;;;3.38;;
70010;SDS011;59543;37.950;-122.338;2022-08-19T14:03:02;8.45;;;3.47;;
70010;SDS011;59543;37.950;-122.338;2022-08-19T14:05:29;8.25;;;3.05;;
70010;SDS011;59543;37.950;-122.338;2022-08-19T14:07:56;5.85;;;2.40;;
70010;SDS011;59543;37.950;-122.338;2022-08-19T14:10:23;5.80;;;2.30;;
70010;SDS011;59543;37.950;-122.338;2022-08-19T14:12:57;11.05;;;2.47;;
70010;SDS011;59543;37.950;-122.338;2022-08-19T14:15:25;5.57;;;2.35;;
70010;SDS011;59543;37.950;-122.338;2022-08-19T14:17:51;8.70;;;2.45;;
70010;SDS011;59543;37.950;-122.338;2022-08-19T14:20:18;6.47;;;2.45;;
70010;SDS011;59543;37.950;-122.338;2022-08-19T14:22:46;5.30;;;2.28;;
70010;SDS011;59543;37.950;-122.338;2022-08-19T14:25:15;5.88;;;2.20;;
70010;SDS011;59543;37.950;-122.338;2022-08-19T14:27:43;8.23;;;2.45;;
70010;SDS011;59543;37.950;-122.338;2022-08-19T14:30:11;7.60;;;2.13;;